Veguita, New Mexico
Current Conditions -  °F | °C
As of 6:35 PM on Wednesday 22 Oct 2014 (Local Time) from KE80 Reporting Station
Clear Clear  
Wind Chill: 65°   Ceiling: Unl
Heat Index: 65°   Visibility: 10mi
Dew Point: 41°   Wind: 6mph
Humidity: 41%   Direction: 160°SSE
Pressure: 30.12"   Gusts: NA
Location:  34.51°N, 106.77°W
Report Text: KE80 230035Z AUTO 16005KT 10SM CLR 19/05 A3012 RMK AO2 T01850050
Loading
Personal Weather Stations






























Interactive Weather Map
Tropical Storm Tracking
New forecast layout! Learn more

10-Day Weather Forecast

Advertisements
Track Severe Weather on mobile